sensor_id;sensor_type;location;lat;lon;timestamp;P1;durP1;ratioP1;P2;durP2;ratioP2
29838;SDS011;18669;53.356;-1.464;2023-03-14T12:00:42;10.35;;;1.60;;
29838;SDS011;18669;53.356;-1.464;2023-03-14T12:03:31;5.10;;;2.35;;
29838;SDS011;18669;53.356;-1.464;2023-03-14T12:09:28;4.07;;;0.90;;
29838;SDS011;18669;53.356;-1.464;2023-03-14T12:12:15;3.05;;;0.98;;
29838;SDS011;18669;53.356;-1.464;2023-03-14T12:15:19;1.52;;;0.88;;
29838;SDS011;18669;53.356;-1.464;2023-03-14T12:18:13;2.45;;;1.10;;
29838;SDS011;18669;53.356;-1.464;2023-03-14T12:21:22;1.58;;;0.90;;
29838;SDS011;18669;53.356;-1.464;2023-03-14T12:24:20;1.67;;;0.90;;
29838;SDS011;18669;53.356;-1.464;2023-03-14T12:27:10;3.25;;;0.80;;
29838;SDS011;18669;53.356;-1.464;2023-03-14T12:30:23;3.95;;;0.95;;
29838;SDS011;18669;53.356;-1.464;2023-03-14T12:36:05;4.60;;;1.80;;
29838;SDS011;18669;53.356;-1.464;2023-03-14T12:43:02;4.70;;;0.93;;
29838;SDS011;18669;53.356;-1.464;2023-03-14T12:51:47;5.28;;;1.42;;
29838;SDS011;18669;53.356;-1.464;2023-03-14T13:00:17;2.58;;;1.00;;
29838;SDS011;18669;53.356;-1.464;2023-03-14T13:06:09;10.10;;;1.23;;
29838;SDS011;18669;53.356;-1.464;2023-03-14T13:08:55;3.42;;;0.90;;
29838;SDS011;18669;53.356;-1.464;2023-03-14T13:11:40;5.20;;;1.00;;
29838;SDS011;18669;53.356;-1.464;2023-03-14T13:14:27;5.47;;;1.63;;
29838;SDS011;18669;53.356;-1.464;2023-03-14T13:17:14;6.95;;;2.38;;
29838;SDS011;18669;53.356;-1.464;2023-03-14T13:20:05;5.75;;;2.63;;
29838;SDS011;18669;53.356;-1.464;2023-03-14T13:22:59;9.52;;;6.63;;
29838;SDS011;18669;53.356;-1.464;2023-03-14T13:25:44;8.95;;;4.07;;
29838;SDS011;18669;53.356;-1.464;2023-03-14T13:28:30;7.65;;;2.67;;
29838;SDS011;18669;53.356;-1.464;2023-03-14T13:31:21;7.38;;;4.22;;
29838;SDS011;18669;53.356;-1.464;2023-03-14T13:34:09;4.32;;;1.70;;
29838;SDS011;18669;53.356;-1.464;2023-03-14T13:36:55;4.63;;;1.30;;
29838;SDS011;18669;53.356;-1.464;2023-03-14T13:39:40;1.55;;;1.00;;
29838;SDS011;18669;53.356;-1.464;2023-03-14T13:42:26;6.38;;;1.20;;
29838;SDS011;18669;53.356;-1.464;2023-03-14T13:45:13;2.35;;;1.80;;
29838;SDS011;18669;53.356;-1.464;2023-03-14T13:47:58;5.93;;;2.92;;
29838;SDS011;18669;53.356;-1.464;2023-03-14T13:50:48;3.33;;;1.50;;
29838;SDS011;18669;53.356;-1.464;2023-03-14T13:53:46;6.10;;;1.40;;
29838;SDS011;18669;53.356;-1.464;2023-03-14T13:56:34;5.63;;;1.40;;
29838;SDS011;18669;53.356;-1.464;2023-03-14T13:59:25;5.07;;;1.90;;
29838;SDS011;18669;53.356;-1.464;2023-03-14T14:02:13;3.45;;;1.30;;
29838;SDS011;18669;53.356;-1.464;2023-03-14T14:04:59;4.75;;;1.15;;
29838;SDS011;18669;53.356;-1.464;2023-03-14T14:07:45;4.35;;;1.50;;
29838;SDS011;18669;53.356;-1.464;2023-03-14T14:10:30;4.68;;;1.33;;
29838;SDS011;18669;53.356;-1.464;2023-03-14T14:13:16;9.85;;;1.92;;
29838;SDS011;18669;53.356;-1.464;2023-03-14T14:16:05;2.67;;;1.38;;
29838;SDS011;18669;53.356;-1.464;2023-03-14T14:18:51;4.32;;;1.13;;
29838;SDS011;18669;53.356;-1.464;2023-03-14T14:21:39;8.70;;;1.55;;
29838;SDS011;18669;53.356;-1.464;2023-03-14T14:24:25;4.15;;;1.10;;
29838;SDS011;18669;53.356;-1.464;2023-03-14T14:27:17;2.75;;;1.33;;
29838;SDS011;18669;53.356;-1.464;2023-03-14T14:33:10;2.33;;;1.20;;
29838;SDS011;18669;53.356;-1.464;2023-03-14T14:36:11;3.17;;;0.88;;
29838;SDS011;18669;53.356;-1.464;2023-03-14T14:39:05;3.33;;;1.60;;
29838;SDS011;18669;53.356;-1.464;2023-03-14T14:42:16;5.82;;;1.50;;
29838;SDS011;18669;53.356;-1.464;2023-03-14T14:45:06;9.13;;;1.70;;
29838;SDS011;18669;53.356;-1.464;2023-03-14T14:56:17;5.93;;;1.40;;
29838;SDS011;18669;53.356;-1.464;2023-03-14T14:59:18;4.18;;;1.08;;
29838;SDS011;18669;53.356;-1.464;2023-03-14T15:02:09;2.53;;;1.00;;
29838;SDS011;18669;53.356;-1.464;2023-03-14T15:05:21;4.43;;;1.45;;
29838;SDS011;18669;53.356;-1.464;2023-03-14T15:08:08;5.90;;;1.25;;
29838;SDS011;18669;53.356;-1.464;2023-03-14T15:10:55;2.75;;;1.08;;
29838;SDS011;18669;53.356;-1.464;2023-03-14T15:13:41;3.90;;;1.00;;
29838;SDS011;18669;53.356;-1.464;2023-03-14T15:16:29;5.45;;;1.20;;
29838;SDS011;18669;53.356;-1.464;2023-03-14T15:19:34;5.18;;;1.08;;
29838;SDS011;18669;53.356;-1.464;2023-03-14T15:22:19;1.92;;;1.10;;
29838;SDS011;18669;53.356;-1.464;2023-03-14T15:25:04;5.22;;;1.55;;
29838;SDS011;18669;53.356;-1.464;2023-03-14T15:27:50;5.32;;;2.25;;
29838;SDS011;18669;53.356;-1.464;2023-03-14T15:30:34;7.57;;;3.08;;
29838;SDS011;18669;53.356;-1.464;2023-03-14T15:33:19;7.22;;;2.13;;
29838;SDS011;18669;53.356;-1.464;2023-03-14T15:36:27;8.18;;;2.63;;
29838;SDS011;18669;53.356;-1.464;2023-03-14T15:39:11;4.55;;;1.30;;
29838;SDS011;18669;53.356;-1.464;2023-03-14T15:41:56;3.45;;;1.10;;
29838;SDS011;18669;53.356;-1.464;2023-03-14T15:44:41;3.50;;;1.08;;
29838;SDS011;18669;53.356;-1.464;2023-03-14T15:47:26;5.00;;;1.50;;
29838;SDS011;18669;53.356;-1.464;2023-03-14T15:50:12;3.83;;;1.90;;
29838;SDS011;18669;53.356;-1.464;2023-03-14T15:52:57;2.47;;;1.70;;
29838;SDS011;18669;53.356;-1.464;2023-03-14T15:55:42;4.72;;;1.40;;
29838;SDS011;18669;53.356;-1.464;2023-03-14T15:58:27;4.00;;;1.80;;
29838;SDS011;18669;53.356;-1.464;2023-03-14T16:01:12;2.70;;;1.08;;
29838;SDS011;18669;53.356;-1.464;2023-03-14T16:03:58;12.77;;;1.80;;
29838;SDS011;18669;53.356;-1.464;2023-03-14T16:06:43;7.82;;;2.30;;
29838;SDS011;18669;53.356;-1.464;2023-03-14T16:09:29;2.40;;;1.52;;
29838;SDS011;18669;53.356;-1.464;2023-03-14T16:12:13;4.10;;;2.00;;
29838;SDS011;18669;53.356;-1.464;2023-03-14T16:14:58;4.65;;;1.70;;
29838;SDS011;18669;53.356;-1.464;2023-03-14T16:17:43;4.55;;;1.80;;
29838;SDS011;18669;53.356;-1.464;2023-03-14T16:20:28;4.35;;;2.50;;
29838;SDS011;18669;53.356;-1.464;2023-03-14T16:23:13;4.25;;;3.00;;
29838;SDS011;18669;53.356;-1.464;2023-03-14T16:26:02;7.15;;;3.90;;
29838;SDS011;18669;53.356;-1.464;2023-03-14T16:28:48;5.25;;;3.35;;
29838;SDS011;18669;53.356;-1.464;2023-03-14T16:31:33;4.75;;;2.83;;
29838;SDS011;18669;53.356;-1.464;2023-03-14T16:34:18;7.55;;;2.80;;
29838;SDS011;18669;53.356;-1.464;2023-03-14T16:37:03;3.35;;;1.50;;
29838;SDS011;18669;53.356;-1.464;2023-03-14T16:39:48;2.78;;;1.67;;
29838;SDS011;18669;53.356;-1.464;2023-03-14T16:42:32;3.08;;;2.05;;
29838;SDS011;18669;53.356;-1.464;2023-03-14T16:45:18;2.05;;;1.20;;
29838;SDS011;18669;53.356;-1.464;2023-03-14T16:48:03;6.65;;;1.40;;
29838;SDS011;18669;53.356;-1.464;2023-03-14T16:50:48;4.70;;;1.17;;
29838;SDS011;18669;53.356;-1.464;2023-03-14T16:53:34;7.03;;;3.80;;
29838;SDS011;18669;53.356;-1.464;2023-03-14T16:56:19;6.28;;;1.80;;
29838;SDS011;18669;53.356;-1.464;2023-03-14T16:59:04;3.30;;;1.70;;
29838;SDS011;18669;53.356;-1.464;2023-03-14T17:01:50;2.22;;;1.20;;
29838;SDS011;18669;53.356;-1.464;2023-03-14T17:04:35;3.67;;;1.20;;
29838;SDS011;18669;53.356;-1.464;2023-03-14T17:07:23;4.88;;;1.40;;
29838;SDS011;18669;53.356;-1.464;2023-03-14T17:10:08;5.65;;;1.70;;
29838;SDS011;18669;53.356;-1.464;2023-03-14T17:12:54;7.30;;;2.03;;
29838;SDS011;18669;53.356;-1.464;2023-03-14T17:15:43;3.55;;;1.40;;
29838;SDS011;18669;53.356;-1.464;2023-03-14T17:18:29;4.07;;;1.38;;
29838;SDS011;18669;53.356;-1.464;2023-03-14T17:21:14;2.97;;;1.35;;
29838;SDS011;18669;53.356;-1.464;2023-03-14T17:23:59;2.15;;;1.38;;
29838;SDS011;18669;53.356;-1.464;2023-03-14T17:26:44;4.13;;;1.38;;
29838;SDS011;18669;53.356;-1.464;2023-03-14T17:29:29;2.67;;;1.30;;
29838;SDS011;18669;53.356;-1.464;2023-03-14T17:32:15;2.25;;;1.20;;
29838;SDS011;18669;53.356;-1.464;2023-03-14T17:35:00;1.33;;;1.00;;
29838;SDS011;18669;53.356;-1.464;2023-03-14T17:37:45;2.95;;;1.35;;
29838;SDS011;18669;53.356;-1.464;2023-03-14T17:40:30;4.90;;;1.50;;
29838;SDS011;18669;53.356;-1.464;2023-03-14T17:43:15;4.30;;;1.27;;
29838;SDS011;18669;53.356;-1.464;2023-03-14T17:46:02;4.68;;;1.50;;
29838;SDS011;18669;53.356;-1.464;2023-03-14T17:48:57;5.78;;;1.67;;
29838;SDS011;18669;53.356;-1.464;2023-03-14T17:51:42;5.03;;;1.75;;
29838;SDS011;18669;53.356;-1.464;2023-03-14T17:54:27;5.65;;;1.73;;
29838;SDS011;18669;53.356;-1.464;2023-03-14T17:57:12;5.03;;;1.80;;
29838;SDS011;18669;53.356;-1.464;2023-03-14T17:59:57;4.28;;;2.10;;
29838;SDS011;18669;53.356;-1.464;2023-03-14T18:02:41;7.35;;;2.45;;
29838;SDS011;18669;53.356;-1.464;2023-03-14T18:05:26;3.00;;;1.63;;
29838;SDS011;18669;53.356;-1.464;2023-03-14T18:08:12;6.10;;;2.10;;
29838;SDS011;18669;53.356;-1.464;2023-03-14T18:10:58;2.25;;;1.98;;
29838;SDS011;18669;53.356;-1.464;2023-03-14T18:13:42;4.10;;;2.05;;
29838;SDS011;18669;53.356;-1.464;2023-03-14T18:16:28;6.25;;;2.33;;
29838;SDS011;18669;53.356;-1.464;2023-03-14T18:19:15;6.65;;;2.88;;
29838;SDS011;18669;53.356;-1.464;2023-03-14T18:22:00;8.82;;;4.47;;
29838;SDS011;18669;53.356;-1.464;2023-03-14T18:24:45;7.47;;;4.50;;
29838;SDS011;18669;53.356;-1.464;2023-03-14T18:27:30;9.50;;;5.15;;
29838;SDS011;18669;53.356;-1.464;2023-03-14T18:30:14;17.25;;;8.00;;
29838;SDS011;18669;53.356;-1.464;2023-03-14T18:33:00;7.25;;;3.95;;
29838;SDS011;18669;53.356;-1.464;2023-03-14T18:35:45;4.88;;;3.38;;
29838;SDS011;18669;53.356;-1.464;2023-03-14T18:38:30;4.28;;;2.90;;
29838;SDS011;18669;53.356;-1.464;2023-03-14T18:41:16;8.10;;;3.10;;
29838;SDS011;18669;53.356;-1.464;2023-03-14T18:44:03;7.22;;;2.83;;
29838;SDS011;18669;53.356;-1.464;2023-03-14T18:46:48;7.32;;;2.70;;
29838;SDS011;18669;53.356;-1.464;2023-03-14T18:49:32;7.75;;;3.08;;
29838;SDS011;18669;53.356;-1.464;2023-03-14T18:52:17;4.82;;;2.90;;
29838;SDS011;18669;53.356;-1.464;2023-03-14T18:55:02;5.43;;;3.08;;
29838;SDS011;18669;53.356;-1.464;2023-03-14T18:57:47;8.52;;;3.95;;
29838;SDS011;18669;53.356;-1.464;2023-03-14T19:00:32;11.63;;;5.03;;
29838;SDS011;18669;53.356;-1.464;2023-03-14T19:03:17;9.50;;;5.60;;
29838;SDS011;18669;53.356;-1.464;2023-03-14T19:06:03;11.15;;;4.65;;
29838;SDS011;18669;53.356;-1.464;2023-03-14T19:08:51;11.23;;;5.55;;
29838;SDS011;18669;53.356;-1.464;2023-03-14T19:11:36;15.68;;;10.50;;
29838;SDS011;18669;53.356;-1.464;2023-03-14T19:14:20;9.63;;;5.07;;
29838;SDS011;18669;53.356;-1.464;2023-03-14T19:17:05;10.15;;;4.93;;
29838;SDS011;18669;53.356;-1.464;2023-03-14T19:19:50;4.72;;;3.10;;
29838;SDS011;18669;53.356;-1.464;2023-03-14T19:22:37;5.53;;;4.25;;
29838;SDS011;18669;53.356;-1.464;2023-03-14T19:25:22;8.77;;;4.05;;
29838;SDS011;18669;53.356;-1.464;2023-03-14T19:28:07;6.63;;;4.07;;
29838;SDS011;18669;53.356;-1.464;2023-03-14T19:30:52;7.38;;;4.35;;
29838;SDS011;18669;53.356;-1.464;2023-03-14T19:33:37;7.28;;;4.60;;
29838;SDS011;18669;53.356;-1.464;2023-03-14T19:39:09;6.00;;;4.35;;
29838;SDS011;18669;53.356;-1.464;2023-03-14T19:41:54;9.05;;;5.75;;
29838;SDS011;18669;53.356;-1.464;2023-03-14T19:44:42;10.57;;;4.70;;
29838;SDS011;18669;53.356;-1.464;2023-03-14T19:47:27;6.13;;;4.05;;
29838;SDS011;18669;53.356;-1.464;2023-03-14T19:50:12;9.93;;;4.50;;
29838;SDS011;18669;53.356;-1.464;2023-03-14T19:52:57;9.23;;;4.80;;
29838;SDS011;18669;53.356;-1.464;2023-03-14T19:55:42;7.68;;;4.78;;
29838;SDS011;18669;53.356;-1.464;2023-03-14T19:58:30;10.80;;;6.35;;
29838;SDS011;18669;53.356;-1.464;2023-03-14T20:01:14;8.43;;;5.03;;
29838;SDS011;18669;53.356;-1.464;2023-03-14T20:04:00;7.97;;;4.78;;
29838;SDS011;18669;53.356;-1.464;2023-03-14T20:06:47;9.13;;;5.65;;
29838;SDS011;18669;53.356;-1.464;2023-03-14T20:09:36;8.63;;;5.07;;
29838;SDS011;18669;53.356;-1.464;2023-03-14T20:12:24;8.63;;;5.68;;
29838;SDS011;18669;53.356;-1.464;2023-03-14T20:15:09;10.85;;;5.00;;
29838;SDS011;18669;53.356;-1.464;2023-03-14T20:17:58;10.57;;;6.70;;
29838;SDS011;18669;53.356;-1.464;2023-03-14T20:20:45;9.52;;;5.40;;
29838;SDS011;18669;53.356;-1.464;2023-03-14T20:26:14;8.10;;;4.90;;
29838;SDS011;18669;53.356;-1.464;2023-03-14T20:28:59;9.95;;;5.95;;
29838;SDS011;18669;53.356;-1.464;2023-03-14T20:31:44;12.23;;;4.88;;
29838;SDS011;18669;53.356;-1.464;2023-03-14T20:34:29;9.18;;;3.33;;
29838;SDS011;18669;53.356;-1.464;2023-03-14T20:37:15;9.20;;;3.15;;
29838;SDS011;18669;53.356;-1.464;2023-03-14T20:40:00;4.28;;;2.60;;
29838;SDS011;18669;53.356;-1.464;2023-03-14T20:42:45;4.40;;;2.20;;
29838;SDS011;18669;53.356;-1.464;2023-03-14T20:45:30;6.88;;;1.73;;
29838;SDS011;18669;53.356;-1.464;2023-03-14T20:48:15;4.18;;;1.80;;
29838;SDS011;18669;53.356;-1.464;2023-03-14T20:51:03;3.15;;;1.90;;
29838;SDS011;18669;53.356;-1.464;2023-03-14T20:53:48;5.93;;;1.80;;
29838;SDS011;18669;53.356;-1.464;2023-03-14T20:56:33;4.88;;;1.80;;
29838;SDS011;18669;53.356;-1.464;2023-03-14T20:59:17;6.43;;;2.20;;
29838;SDS011;18669;53.356;-1.464;2023-03-14T21:02:03;4.20;;;2.15;;
29838;SDS011;18669;53.356;-1.464;2023-03-14T21:04:47;3.67;;;2.25;;
29838;SDS011;18669;53.356;-1.464;2023-03-14T21:07:36;9.40;;;2.75;;
29838;SDS011;18669;53.356;-1.464;2023-03-14T21:10:24;5.80;;;2.42;;
29838;SDS011;18669;53.356;-1.464;2023-03-14T21:13:09;5.72;;;3.33;;
29838;SDS011;18669;53.356;-1.464;2023-03-14T21:15:54;4.55;;;3.10;;
29838;SDS011;18669;53.356;-1.464;2023-03-14T21:18:42;5.70;;;3.25;;
29838;SDS011;18669;53.356;-1.464;2023-03-14T21:21:27;4.90;;;3.28;;
29838;SDS011;18669;53.356;-1.464;2023-03-14T21:24:12;4.00;;;2.80;;
29838;SDS011;18669;53.356;-1.464;2023-03-14T21:26:58;4.10;;;2.80;;
29838;SDS011;18669;53.356;-1.464;2023-03-14T21:29:43;4.82;;;3.20;;
29838;SDS011;18669;53.356;-1.464;2023-03-14T21:32:28;5.47;;;3.72;;
29838;SDS011;18669;53.356;-1.464;2023-03-14T21:35:13;7.57;;;4.30;;
29838;SDS011;18669;53.356;-1.464;2023-03-14T21:37:58;7.30;;;3.95;;
29838;SDS011;18669;53.356;-1.464;2023-03-14T21:40:42;13.77;;;5.13;;
29838;SDS011;18669;53.356;-1.464;2023-03-14T21:43:33;10.60;;;4.93;;
29838;SDS011;18669;53.356;-1.464;2023-03-14T21:46:18;9.07;;;4.38;;
29838;SDS011;18669;53.356;-1.464;2023-03-14T21:49:03;6.60;;;3.67;;
29838;SDS011;18669;53.356;-1.464;2023-03-14T21:51:48;8.50;;;3.50;;
29838;SDS011;18669;53.356;-1.464;2023-03-14T21:54:33;7.28;;;3.13;;
29838;SDS011;18669;53.356;-1.464;2023-03-14T21:57:18;6.18;;;4.28;;
29838;SDS011;18669;53.356;-1.464;2023-03-14T22:00:03;8.45;;;5.13;;
29838;SDS011;18669;53.356;-1.464;2023-03-14T22:02:50;7.53;;;5.43;;
29838;SDS011;18669;53.356;-1.464;2023-03-14T22:05:36;7.90;;;5.70;;
29838;SDS011;18669;53.356;-1.464;2023-03-14T22:08:21;8.07;;;4.47;;
29838;SDS011;18669;53.356;-1.464;2023-03-14T22:11:06;6.63;;;3.70;;
29838;SDS011;18669;53.356;-1.464;2023-03-14T22:13:52;5.05;;;3.60;;
29838;SDS011;18669;53.356;-1.464;2023-03-14T22:16:36;4.53;;;3.20;;
29838;SDS011;18669;53.356;-1.464;2023-03-14T22:19:21;4.65;;;2.97;;
29838;SDS011;18669;53.356;-1.464;2023-03-14T22:22:06;4.32;;;3.00;;
29838;SDS011;18669;53.356;-1.464;2023-03-14T22:24:52;5.45;;;3.30;;
29838;SDS011;18669;53.356;-1.464;2023-03-14T22:27:37;6.90;;;3.30;;
29838;SDS011;18669;53.356;-1.464;2023-03-14T22:30:22;6.50;;;4.10;;
29838;SDS011;18669;53.356;-1.464;2023-03-14T22:33:07;4.82;;;3.58;;
29838;SDS011;18669;53.356;-1.464;2023-03-14T22:35:52;6.10;;;3.70;;
29838;SDS011;18669;53.356;-1.464;2023-03-14T22:38:37;5.60;;;3.28;;
29838;SDS011;18669;53.356;-1.464;2023-03-14T22:41:22;6.32;;;3.97;;
29838;SDS011;18669;53.356;-1.464;2023-03-14T22:44:07;6.18;;;4.03;;
29838;SDS011;18669;53.356;-1.464;2023-03-14T22:46:52;5.53;;;3.70;;
29838;SDS011;18669;53.356;-1.464;2023-03-14T22:49:37;8.48;;;3.67;;
29838;SDS011;18669;53.356;-1.464;2023-03-14T22:52:22;5.72;;;3.80;;
29838;SDS011;18669;53.356;-1.464;2023-03-14T22:55:07;7.90;;;4.50;;
29838;SDS011;18669;53.356;-1.464;2023-03-14T22:57:52;7.15;;;3.90;;
29838;SDS011;18669;53.356;-1.464;2023-03-14T23:00:37;7.03;;;3.92;;
29838;SDS011;18669;53.356;-1.464;2023-03-14T23:03:22;4.78;;;3.05;;
29838;SDS011;18669;53.356;-1.464;2023-03-14T23:06:07;7.93;;;4.22;;
29838;SDS011;18669;53.356;-1.464;2023-03-14T23:08:52;10.68;;;5.35;;
29838;SDS011;18669;53.356;-1.464;2023-03-14T23:11:37;6.53;;;4.20;;
29838;SDS011;18669;53.356;-1.464;2023-03-14T23:14:22;4.60;;;3.30;;
29838;SDS011;18669;53.356;-1.464;2023-03-14T23:17:07;8.73;;;3.55;;
29838;SDS011;18669;53.356;-1.464;2023-03-14T23:19:52;4.53;;;3.53;;
29838;SDS011;18669;53.356;-1.464;2023-03-14T23:22:37;4.22;;;2.97;;
29838;SDS011;18669;53.356;-1.464;2023-03-14T23:25:22;5.97;;;2.90;;
29838;SDS011;18669;53.356;-1.464;2023-03-14T23:28:07;3.80;;;2.83;;
29838;SDS011;18669;53.356;-1.464;2023-03-14T23:30:53;3.58;;;2.45;;
29838;SDS011;18669;53.356;-1.464;2023-03-14T23:33:40;3.65;;;2.88;;
29838;SDS011;18669;53.356;-1.464;2023-03-14T23:36:26;6.03;;;3.10;;
29838;SDS011;18669;53.356;-1.464;2023-03-14T23:39:11;3.60;;;2.60;;
29838;SDS011;18669;53.356;-1.464;2023-03-14T23:41:56;4.68;;;3.00;;
29838;SDS011;18669;53.356;-1.464;2023-03-14T23:44:40;3.78;;;2.67;;
29838;SDS011;18669;53.356;-1.464;2023-03-14T23:47:25;4.93;;;2.45;;
29838;SDS011;18669;53.356;-1.464;2023-03-14T23:50:11;3.90;;;2.63;;
29838;SDS011;18669;53.356;-1.464;2023-03-14T23:52:56;3.15;;;2.72;;
29838;SDS011;18669;53.356;-1.464;2023-03-14T23:55:41;5.40;;;3.20;;
29838;SDS011;18669;53.356;-1.464;2023-03-14T23:58:26;2.78;;;2.33;;
